Wetterdaten: Woche 17.10.16 - 23.10.16 (KW42)
Datum Zeit Temp. A. Feuchte A. Luftdruck Regen Wind Richtung Taupunkt Windchill Windben
17.10.2016 00:00 5,3 C 95 % 1023,0 hPa 0,0 l/m 0,0 km/h (0 Bft) S-SO 4,6 C 5,3 C 0,4 km/h (0 Bft)
17.10.2016 01:00 4,7 C 96 % 1022,9 hPa 0,0 l/m 0,2 km/h (0 Bft) S-SO 4,1 C 4,7 C 1,1 km/h (0 Bft)
17.10.2016 02:00 4,5 C 96 % 1023,0 hPa 0,0 l/m 0,2 km/h (0 Bft) W-SW 3,8 C 4,5 C 1,1 km/h (0 Bft)
17.10.2016 03:00 4,2 C 96 % 1022,8 hPa 0,0 l/m 0,1 km/h (0 Bft) W-SW 3,6 C 4,2 C 0,8 km/h (0 Bft)
17.10.2016 04:00 4,2 C 96 % 1022,8 hPa 0,0 l/m 0,2 km/h (0 Bft) W-SW 3,7 C 4,2 C 1,7 km/h (1 Bft)
17.10.2016 05:00 4,7 C 97 % 1022,8 hPa 0,0 l/m 0,0 km/h (0 Bft) W-SW 4,3 C 4,7 C 0,7 km/h (0 Bft)
17.10.2016 06:00 4,7 C 97 % 1022,8 hPa 0,0 l/m 0,0 km/h (0 Bft) W-SW 4,3 C 4,7 C 0,7 km/h (0 Bft)
17.10.2016 07:00 5,0 C 97 % 1022,6 hPa 0,0 l/m 0,1 km/h (0 Bft) W-SW 4,6 C 5,0 C 1,1 km/h (0 Bft)
17.10.2016 08:00 5,3 C 97 % 1022,6 hPa 0,0 l/m 0,2 km/h (0 Bft) W-SW 4,9 C 5,3 C 1,3 km/h (1 Bft)
17.10.2016 09:00 6,5 C 97 % 1022,9 hPa 0,0 l/m 0,1 km/h (0 Bft) W-SW 6,1 C 6,5 C 1,1 km/h (0 Bft)
17.10.2016 10:00 8,8 C 98 % 1022,9 hPa 0,0 l/m 0,1 km/h (0 Bft) W-SW 8,5 C 8,8 C 0,9 km/h (0 Bft)
17.10.2016 11:00 13,1 C 89 % 1022,7 hPa 0,0 l/m 1,2 km/h (1 Bft) W-SW 11,3 C 13,1 C 2,7 km/h (1 Bft)
17.10.2016 12:00 15,4 C 80 % 1022,4 hPa 0,0 l/m 3,1 km/h (1 Bft) O-NO 12,0 C 15,4 C 8,0 km/h (2 Bft)
17.10.2016 13:00 16,2 C 76 % 1022,1 hPa 0,0 l/m 4,1 km/h (1 Bft) O-NO 11,9 C 16,2 C 9,4 km/h (2 Bft)
17.10.2016 14:00 15,9 C 77 % 1021,8 hPa 1,0 l/m 3,5 km/h (1 Bft) O-NO 11,8 C 15,9 C 8,6 km/h (2 Bft)
17.10.2016 15:00 13,8 C 91 % 1022,3 hPa 2,0 l/m 0,8 km/h (0 Bft) O-NO 12,3 C 13,8 C 2,8 km/h (1 Bft)
17.10.2016 16:00 13,0 C 94 % 1022,2 hPa 0,5 l/m 1,6 km/h (1 Bft) O 12,1 C 13,0 C 3,6 km/h (1 Bft)
17.10.2016 17:00 12,7 C 94 % 1022,6 hPa 0,5 l/m 1,1 km/h (1 Bft) O 11,8 C 12,7 C 3,4 km/h (1 Bft)
17.10.2016 18:00 12,1 C 94 % 1023,1 hPa 2,0 l/m 0,1 km/h (0 Bft) N 11,2 C 12,1 C 0,6 km/h (0 Bft)
17.10.2016 19:00 11,6 C 96 % 1023,5 hPa 0,5 l/m 0,1 km/h (0 Bft) N 10,9 C 11,6 C 0,5 km/h (0 Bft)
17.10.2016 20:00 11,2 C 96 % 1023,5 hPa 0,0 l/m 0,0 km/h (0 Bft) N 10,6 C 11,2 C 0,1 km/h (0 Bft)
17.10.2016 21:00 10,9 C 96 % 1023,4 hPa 0,3 l/m 0,2 km/h (0 Bft) O-SO 10,3 C 10,9 C 1,1 km/h (1 Bft)
17.10.2016 22:00 10,3 C 96 % 1023,3 hPa 0,0 l/m 0,0 km/h (0 Bft) O 9,8 C 10,3 C 0,1 km/h (0 Bft)
17.10.2016 23:00 10,0 C 97 % 1023,0 hPa 0,8 l/m 0,1 km/h (0 Bft) O 9,6 C 10,0 C 0,5 km/h (0 Bft)
18.10.2016 00:00 9,9 C 97 % 1023,0 hPa 1,3 l/m 0,0 km/h (0 Bft) N 9,4 C 9,9 C 0,4 km/h (0 Bft)
18.10.2016 01:00 9,7 C 97 % 1022,8 hPa 4,1 l/m 0,3 km/h (0 Bft) O 9,2 C 9,7 C 1,7 km/h (1 Bft)
18.10.2016 02:00 9,2 C 97 % 1022,6 hPa 0,5 l/m 0,1 km/h (0 Bft) O 8,7 C 9,2 C 0,8 km/h (0 Bft)
18.10.2016 03:00 9,0 C 97 % 1022,6 hPa 1,0 l/m 0,1 km/h (0 Bft) O 8,6 C 9,0 C 0,8 km/h (0 Bft)
18.10.2016 04:00 8,7 C 97 % 1022,5 hPa 0,0 l/m 0,3 km/h (0 Bft) O 8,3 C 8,7 C 1,7 km/h (1 Bft)
18.10.2016 05:00 8,7 C 98 % 1022,4 hPa 0,0 l/m 0,1 km/h (0 Bft) O 8,3 C 8,7 C 0,6 km/h (0 Bft)
18.10.2016 06:00 8,7 C 98 % 1022,3 hPa 0,0 l/m 0,0 km/h (0 Bft) O 8,4 C 8,7 C 0,1 km/h (0 Bft)
18.10.2016 07:00 8,8 C 98 % 1022,3 hPa 0,0 l/m 0,0 km/h (0 Bft) O 8,5 C 8,8 C 0,0 km/h (0 Bft)
18.10.2016 08:00 9,1 C 98 % 1022,5 hPa 0,0 l/m 0,0 km/h (0 Bft) O 8,8 C 9,1 C 0,0 km/h (0 Bft)
18.10.2016 09:00 9,4 C 98 % 1022,8 hPa 0,0 l/m 0,0 km/h (0 Bft) O 9,1 C 9,4 C 0,0 km/h (0 Bft)
18.10.2016 10:00 9,4 C 98 % 1022,9 hPa 0,0 l/m 0,0 km/h (0 Bft) O 9,1 C 9,4 C 0,0 km/h (0 Bft)
18.10.2016 11:00 11,5 C 93 % 1023,0 hPa 0,0 l/m 2,4 km/h (1 Bft) O-NO 10,3 C 11,5 C 4,5 km/h (1 Bft)
18.10.2016 12:00 11,2 C 93 % 1023,1 hPa 2,5 l/m 3,0 km/h (1 Bft) O 10,0 C 11,2 C 5,9 km/h (2 Bft)
18.10.2016 13:00 11,1 C 94 % 1022,9 hPa 0,0 l/m 3,4 km/h (1 Bft) O 10,1 C 11,1 C 5,8 km/h (2 Bft)
18.10.2016 14:00 11,8 C 91 % 1022,4 hPa 0,0 l/m 2,9 km/h (1 Bft) O-NO 10,4 C 11,8 C 4,9 km/h (1 Bft)
18.10.2016 15:00 12,4 C 86 % 1022,1 hPa 0,0 l/m 4,0 km/h (1 Bft) O-NO 10,2 C 12,4 C 7,3 km/h (2 Bft)
18.10.2016 16:00 12,0 C 87 % 1021,9 hPa 0,0 l/m 3,0 km/h (1 Bft) O-NO 10,0 C 12,0 C 5,2 km/h (1 Bft)
18.10.2016 17:00 11,2 C 91 % 1021,5 hPa 0,0 l/m 1,0 km/h (0 Bft) O-NO 9,7 C 11,2 C 2,2 km/h (1 Bft)
18.10.2016 18:00 10,5 C 93 % 1021,5 hPa 0,0 l/m 0,7 km/h (0 Bft) O 9,4 C 10,5 C 2,3 km/h (1 Bft)
18.10.2016 19:00 9,6 C 94 % 1021,4 hPa 0,0 l/m 0,6 km/h (0 Bft) O 8,7 C 9,6 C 2,3 km/h (1 Bft)
18.10.2016 20:00 9,1 C 94 % 1021,3 hPa 0,0 l/m 1,2 km/h (1 Bft) O 8,3 C 9,1 C 3,7 km/h (1 Bft)
18.10.2016 21:00 9,0 C 95 % 1021,3 hPa 0,0 l/m 1,1 km/h (0 Bft) NO 8,2 C 9,0 C 3,6 km/h (1 Bft)
18.10.2016 22:00 9,1 C 94 % 1021,2 hPa 0,5 l/m 2,5 km/h (1 Bft) O 8,2 C 9,1 C 6,2 km/h (2 Bft)
18.10.2016 23:00 8,9 C 95 % 1020,9 hPa 0,8 l/m 2,4 km/h (1 Bft) O-NO 8,1 C 8,9 C 4,8 km/h (1 Bft)
19.10.2016 00:00 8,6 C 95 % 1020,7 hPa 0,3 l/m 2,5 km/h (1 Bft) O-NO 7,8 C 8,6 C 5,9 km/h (2 Bft)
19.10.2016 01:00 8,2 C 95 % 1020,4 hPa 0,0 l/m 1,4 km/h (1 Bft) SO 7,5 C 8,2 C 4,4 km/h (1 Bft)
19.10.2016 02:00 8,4 C 95 % 1019,8 hPa 0,0 l/m 3,9 km/h (1 Bft) N 7,6 C 8,4 C 11,0 km/h (2 Bft)
19.10.2016 03:00 8,3 C 95 % 1019,3 hPa 0,8 l/m 3,5 km/h (1 Bft) O-NO 7,5 C 8,3 C 8,7 km/h (2 Bft)
19.10.2016 04:00 8,0 C 95 % 1018,8 hPa 2,5 l/m 3,7 km/h (1 Bft) O-NO 7,3 C 8,0 C 9,0 km/h (2 Bft)
19.10.2016 05:00 7,7 C 95 % 1018,6 hPa 4,8 l/m 3,0 km/h (1 Bft) O-NO 7,0 C 7,7 C 7,7 km/h (2 Bft)
19.10.2016 06:00 7,5 C 95 % 1018,7 hPa 0,8 l/m 3,1 km/h (1 Bft) O 6,8 C 7,5 C 5,8 km/h (2 Bft)
19.10.2016 07:00 7,3 C 95 % 1018,8 hPa 0,3 l/m 2,5 km/h (1 Bft) O 6,5 C 7,2 C 5,0 km/h (1 Bft)
19.10.2016 08:00 7,0 C 93 % 1019,3 hPa 0,0 l/m 2,8 km/h (1 Bft) O 6,0 C 7,0 C 7,9 km/h (2 Bft)
19.10.2016 09:00 7,1 C 91 % 1019,7 hPa 0,0 l/m 4,7 km/h (1 Bft) O 5,8 C 7,0 C 11,1 km/h (2 Bft)
19.10.2016 10:00 8,0 C 87 % 1019,7 hPa 0,0 l/m 4,6 km/h (1 Bft) O-NO 5,9 C 8,0 C 10,8 km/h (2 Bft)
19.10.2016 11:00 7,1 C 86 % 1019,7 hPa 0,0 l/m 3,7 km/h (1 Bft) O 5,0 C 7,1 C 8,5 km/h (2 Bft)
19.10.2016 12:00 7,2 C 86 % 1019,4 hPa 0,0 l/m 4,0 km/h (1 Bft) O 5,0 C 7,2 C 9,5 km/h (2 Bft)
19.10.2016 13:00 8,0 C 82 % 1018,7 hPa 0,0 l/m 4,8 km/h (1 Bft) NO 5,1 C 7,9 C 11,8 km/h (2 Bft)
19.10.2016 14:00 8,7 C 79 % 1017,9 hPa 0,0 l/m 5,5 km/h (2 Bft) O 5,2 C 8,5 C 14,4 km/h (3 Bft)
19.10.2016 15:00 8,7 C 78 % 1017,4 hPa 0,0 l/m 4,0 km/h (1 Bft) O-NO 5,0 C 8,7 C 10,2 km/h (2 Bft)
19.10.2016 16:00 8,5 C 80 % 1017,2 hPa 0,0 l/m 3,6 km/h (1 Bft) O-NO 5,1 C 8,5 C 9,7 km/h (2 Bft)
19.10.2016 17:00 8,1 C 80 % 1016,8 hPa 0,0 l/m 3,7 km/h (1 Bft) O-NO 4,8 C 8,1 C 8,7 km/h (2 Bft)
19.10.2016 18:00 7,7 C 82 % 1016,8 hPa 0,0 l/m 2,7 km/h (1 Bft) O-NO 4,8 C 7,7 C 6,9 km/h (2 Bft)
19.10.2016 19:00 7,0 C 88 % 1016,9 hPa 0,0 l/m 4,1 km/h (1 Bft) O 5,1 C 7,0 C 10,6 km/h (2 Bft)
19.10.2016 20:00 6,7 C 88 % 1017,0 hPa 0,0 l/m 2,9 km/h (1 Bft) O 4,8 C 6,7 C 8,2 km/h (2 Bft)
19.10.2016 21:00 6,6 C 90 % 1017,0 hPa 0,5 l/m 2,6 km/h (1 Bft) O-NO 5,0 C 6,6 C 7,1 km/h (2 Bft)
19.10.2016 22:00 6,3 C 92 % 1016,9 hPa 0,3 l/m 2,7 km/h (1 Bft) O 5,1 C 6,3 C 7,8 km/h (2 Bft)
19.10.2016 23:00 6,0 C 92 % 1016,5 hPa 0,0 l/m 3,6 km/h (1 Bft) O 4,8 C 6,0 C 8,0 km/h (2 Bft)
20.10.2016 00:00 6,0 C 91 % 1016,2 hPa 0,0 l/m 4,3 km/h (1 Bft) O-NO 4,6 C 5,9 C 7,3 km/h (2 Bft)
20.10.2016 01:00 6,3 C 89 % 1016,3 hPa 0,0 l/m 4,2 km/h (1 Bft) NO 4,7 C 6,2 C 10,3 km/h (2 Bft)
20.10.2016 02:00 6,0 C 91 % 1016,1 hPa 0,0 l/m 3,0 km/h (1 Bft) NO 4,7 C 6,0 C 7,6 km/h (2 Bft)
20.10.2016 03:00 5,8 C 91 % 1015,7 hPa 0,0 l/m 4,0 km/h (1 Bft) NO 4,5 C 5,8 C 9,9 km/h (2 Bft)
20.10.2016 04:00 5,6 C 94 % 1015,4 hPa 0,5 l/m 3,6 km/h (1 Bft) O-NO 4,6 C 5,6 C 9,5 km/h (2 Bft)
20.10.2016 05:00 5,4 C 95 % 1014,9 hPa 1,0 l/m 2,5 km/h (1 Bft) O-NO 4,7 C 5,4 C 5,8 km/h (2 Bft)
20.10.2016 06:00 5,3 C 95 % 1014,8 hPa 0,8 l/m 2,8 km/h (1 Bft) O-NO 4,6 C 5,3 C 6,9 km/h (2 Bft)
20.10.2016 07:00 5,3 C 95 % 1014,9 hPa 0,3 l/m 3,3 km/h (1 Bft) O 4,5 C 5,3 C 9,1 km/h (2 Bft)
20.10.2016 08:00 5,3 C 95 % 1015,0 hPa 0,0 l/m 3,6 km/h (1 Bft) O-NO 4,5 C 5,3 C 9,4 km/h (2 Bft)
20.10.2016 09:00 5,7 C 94 % 1015,2 hPa 0,5 l/m 4,8 km/h (1 Bft) O-NO 4,9 C 5,7 C 11,4 km/h (2 Bft)
20.10.2016 10:00 6,0 C 94 % 1015,2 hPa 0,3 l/m 5,0 km/h (1 Bft) O 5,1 C 5,9 C 13,7 km/h (3 Bft)
20.10.2016 11:00 5,9 C 95 % 1015,1 hPa 0,8 l/m 5,5 km/h (2 Bft) NO 5,1 C 5,7 C 11,4 km/h (2 Bft)
20.10.2016 12:00 6,4 C 95 % 1015,0 hPa 0,8 l/m 5,0 km/h (1 Bft) O-NO 5,6 C 6,2 C 9,1 km/h (2 Bft)
20.10.2016 13:00 6,4 C 94 % 1014,8 hPa 0,3 l/m 4,3 km/h (1 Bft) O-NO 5,6 C 6,3 C 7,3 km/h (2 Bft)
20.10.2016 14:00 6,7 C 93 % 1014,3 hPa 0,0 l/m 4,6 km/h (1 Bft) O 5,7 C 6,6 C 8,5 km/h (2 Bft)
20.10.2016 15:00 7,7 C 90 % 1014,0 hPa 0,0 l/m 4,8 km/h (1 Bft) O-NO 6,1 C 7,6 C 12,8 km/h (3 Bft)
20.10.2016 16:00 7,3 C 90 % 1014,0 hPa 0,0 l/m 4,1 km/h (1 Bft) O 5,7 C 7,3 C 11,7 km/h (2 Bft)
20.10.2016 17:00 6,9 C 92 % 1013,9 hPa 0,0 l/m 4,6 km/h (1 Bft) O-NO 5,6 C 6,8 C 10,5 km/h (2 Bft)
20.10.2016 18:00 6,6 C 92 % 1013,8 hPa 0,3 l/m 3,6 km/h (1 Bft) O-NO 5,4 C 6,6 C 7,2 km/h (2 Bft)
20.10.2016 19:00 6,3 C 93 % 1013,9 hPa 0,3 l/m 3,8 km/h (1 Bft) O 5,1 C 6,3 C 7,0 km/h (2 Bft)
20.10.2016 20:00 5,9 C 93 % 1013,6 hPa 0,0 l/m 2,2 km/h (1 Bft) O-NO 4,8 C 5,9 C 4,3 km/h (1 Bft)
20.10.2016 21:00 5,8 C 93 % 1013,3 hPa 0,0 l/m 3,3 km/h (1 Bft) NO 4,8 C 5,8 C 6,1 km/h (2 Bft)
20.10.2016 22:00 5,8 C 94 % 1013,2 hPa 0,0 l/m 3,5 km/h (1 Bft) O-NO 4,9 C 5,7 C 6,6 km/h (2 Bft)
20.10.2016 23:00 6,0 C 93 % 1013,0 hPa 0,0 l/m 4,6 km/h (1 Bft) O-NO 5,0 C 5,9 C 9,4 km/h (2 Bft)
21.10.2016 00:00 6,2 C 93 % 1012,9 hPa 0,0 l/m 5,3 km/h (1 Bft) NO 5,1 C 6,1 C 14,1 km/h (3 Bft)
21.10.2016 01:00 6,1 C 94 % 1012,8 hPa 1,3 l/m 5,5 km/h (2 Bft) N-NO 5,3 C 5,9 C 12,6 km/h (3 Bft)
21.10.2016 02:00 5,8 C 94 % 1013,1 hPa 4,3 l/m 2,7 km/h (1 Bft) O-NO 5,0 C 5,8 C 7,9 km/h (2 Bft)
21.10.2016 03:00 4,9 C 95 % 1013,1 hPa 1,0 l/m 0,5 km/h (0 Bft) O 4,1 C 4,9 C 2,1 km/h (1 Bft)
21.10.2016 04:00 4,8 C 96 % 1013,0 hPa 0,3 l/m 0,2 km/h (0 Bft) O 4,2 C 4,8 C 1,3 km/h (1 Bft)
21.10.2016 05:00 4,9 C 97 % 1013,0 hPa 0,0 l/m 0,1 km/h (0 Bft) O 4,4 C 4,9 C 0,6 km/h (0 Bft)
21.10.2016 06:00 5,0 C 97 % 1013,2 hPa 0,0 l/m 0,1 km/h (0 Bft) N 4,6 C 5,0 C 0,4 km/h (0 Bft)
21.10.2016 07:00 4,9 C 97 % 1013,5 hPa 0,0 l/m 0,2 km/h (0 Bft) O 4,5 C 4,9 C 1,3 km/h (1 Bft)
21.10.2016 08:00 4,8 C 97 % 1014,1 hPa 0,0 l/m 0,4 km/h (0 Bft) O 4,3 C 4,8 C 1,7 km/h (1 Bft)
21.10.2016 09:00 5,3 C 95 % 1014,5 hPa 0,0 l/m 1,5 km/h (1 Bft) O-NO 4,5 C 5,3 C 3,9 km/h (1 Bft)
21.10.2016 10:00 5,6 C 93 % 1014,7 hPa 0,0 l/m 1,5 km/h (1 Bft) O-NO 4,6 C 5,6 C 4,1 km/h (1 Bft)
21.10.2016 11:00 6,1 C 90 % 1015,2 hPa 0,0 l/m 2,8 km/h (1 Bft) O 4,6 C 6,1 C 6,3 km/h (2 Bft)
21.10.2016 12:00 6,4 C 88 % 1015,3 hPa 0,0 l/m 2,9 km/h (1 Bft) O-NO 4,6 C 6,4 C 6,5 km/h (2 Bft)
21.10.2016 13:00 6,3 C 88 % 1015,4 hPa 0,0 l/m 2,8 km/h (1 Bft) O 4,4 C 6,3 C 5,6 km/h (2 Bft)
21.10.2016 14:00 6,1 C 88 % 1015,3 hPa 0,0 l/m 2,7 km/h (1 Bft) O 4,2 C 6,1 C 5,8 km/h (2 Bft)
21.10.2016 15:00 5,8 C 86 % 1015,5 hPa 0,0 l/m 2,8 km/h (1 Bft) O-NO 3,8 C 5,8 C 7,0 km/h (2 Bft)
21.10.2016 16:00 5,6 C 89 % 1015,8 hPa 0,3 l/m 1,9 km/h (1 Bft) O-NO 3,9 C 5,6 C 4,8 km/h (1 Bft)
21.10.2016 17:00 5,3 C 89 % 1015,7 hPa 0,0 l/m 1,3 km/h (1 Bft) O-NO 3,7 C 5,3 C 3,4 km/h (1 Bft)
21.10.2016 18:00 5,1 C 90 % 1015,8 hPa 0,0 l/m 0,9 km/h (0 Bft) O-NO 3,5 C 5,1 C 2,7 km/h (1 Bft)
21.10.2016 19:00 4,7 C 90 % 1016,1 hPa 0,0 l/m 1,3 km/h (1 Bft) O 3,2 C 4,7 C 4,3 km/h (1 Bft)
21.10.2016 20:00 4,5 C 92 % 1016,3 hPa 0,0 l/m 2,1 km/h (1 Bft) O 3,3 C 4,5 C 4,5 km/h (1 Bft)
21.10.2016 21:00 4,5 C 92 % 1016,3 hPa 0,0 l/m 2,3 km/h (1 Bft) O-NO 3,3 C 4,5 C 5,1 km/h (1 Bft)
21.10.2016 22:00 4,3 C 93 % 1016,3 hPa 0,0 l/m 1,0 km/h (0 Bft) O 3,3 C 4,3 C 3,1 km/h (1 Bft)
21.10.2016 23:00 3,8 C 94 % 1016,2 hPa 0,0 l/m 0,0 km/h (0 Bft) O 2,9 C 3,8 C 0,3 km/h (0 Bft)
22.10.2016 00:00 3,0 C 95 % 1015,9 hPa 0,0 l/m 0,1 km/h (0 Bft) O 2,3 C 3,0 C 0,8 km/h (0 Bft)
22.10.2016 01:00 2,8 C 96 % 1015,8 hPa 0,0 l/m 0,5 km/h (0 Bft) O 2,2 C 2,8 C 2,5 km/h (1 Bft)
22.10.2016 02:00 3,1 C 95 % 1015,6 hPa 0,0 l/m 1,1 km/h (0 Bft) N-NO 2,4 C 3,1 C 3,7 km/h (1 Bft)
22.10.2016 03:00 3,4 C 94 % 1015,2 hPa 0,0 l/m 0,7 km/h (0 Bft) N-NW 2,5 C 3,4 C 2,8 km/h (1 Bft)
22.10.2016 04:00 3,2 C 95 % 1015,0 hPa 0,0 l/m 0,0 km/h (0 Bft) N-NW 2,5 C 3,2 C 0,7 km/h (0 Bft)
22.10.2016 05:00 3,5 C 95 % 1014,9 hPa 0,0 l/m 0,9 km/h (0 Bft) O-NO 2,9 C 3,5 C 2,6 km/h (1 Bft)
22.10.2016 06:00 3,7 C 95 % 1014,9 hPa 0,0 l/m 1,7 km/h (1 Bft) O-NO 3,0 C 3,7 C 4,1 km/h (1 Bft)
22.10.2016 07:00 3,8 C 94 % 1015,0 hPa 0,0 l/m 2,2 km/h (1 Bft) NO 3,0 C 3,8 C 5,6 km/h (2 Bft)
22.10.2016 08:00 3,9 C 94 % 1015,2 hPa 0,0 l/m 1,3 km/h (1 Bft) O 3,0 C 3,9 C 4,3 km/h (1 Bft)
22.10.2016 09:00 4,4 C 92 % 1015,3 hPa 0,0 l/m 3,1 km/h (1 Bft) O-NO 3,2 C 4,4 C 7,2 km/h (2 Bft)
22.10.2016 10:00 6,3 C 85 % 1015,1 hPa 0,0 l/m 4,0 km/h (1 Bft) NO 3,9 C 6,3 C 8,6 km/h (2 Bft)
22.10.2016 11:00 7,2 C 79 % 1015,1 hPa 0,0 l/m 4,2 km/h (1 Bft) NO 3,8 C 7,2 C 9,0 km/h (2 Bft)
22.10.2016 12:00 6,9 C 80 % 1015,2 hPa 0,0 l/m 2,7 km/h (1 Bft) NO 3,7 C 6,9 C 5,2 km/h (1 Bft)
22.10.2016 13:00 7,4 C 79 % 1015,2 hPa 0,0 l/m 3,0 km/h (1 Bft) O-NO 4,0 C 7,4 C 5,3 km/h (1 Bft)
22.10.2016 14:00 8,4 C 74 % 1014,8 hPa 0,0 l/m 3,6 km/h (1 Bft) O-NO 4,0 C 8,4 C 6,5 km/h (2 Bft)
22.10.2016 15:00 10,0 C 63 % 1014,4 hPa 0,0 l/m 3,7 km/h (1 Bft) O-NO 3,3 C 10,0 C 6,9 km/h (2 Bft)
22.10.2016 16:00 10,6 C 59 % 1014,2 hPa 0,0 l/m 2,9 km/h (1 Bft) O-NO 2,9 C 10,6 C 5,1 km/h (1 Bft)
22.10.2016 17:00 9,1 C 67 % 1014,0 hPa 0,0 l/m 1,7 km/h (1 Bft) O-NO 3,2 C 9,1 C 2,8 km/h (1 Bft)
22.10.2016 18:00 5,8 C 82 % 1014,2 hPa 0,0 l/m 0,4 km/h (0 Bft) O-NO 2,9 C 5,8 C 1,5 km/h (1 Bft)
22.10.2016 19:00 3,1 C 90 % 1014,8 hPa 0,0 l/m 0,1 km/h (0 Bft) O-NO 1,6 C 3,1 C 0,9 km/h (0 Bft)
22.10.2016 20:00 2,3 C 94 % 1015,0 hPa 0,0 l/m 0,1 km/h (0 Bft) O-NO 1,4 C 2,3 C 1,1 km/h (0 Bft)
22.10.2016 21:00 1,2 C 93 % 1015,1 hPa 0,0 l/m 0,0 km/h (0 Bft) O-NO 0,2 C 1,2 C 0,0 km/h (0 Bft)
22.10.2016 22:00 0,1 C 94 % 1015,1 hPa 0,0 l/m 0,2 km/h (0 Bft) O-NO -0,7 C 0,1 C 1,7 km/h (1 Bft)
22.10.2016 23:00 0,1 C 96 % 1014,9 hPa 0,0 l/m 0,1 km/h (0 Bft) O-NO -0,6 C 0,1 C 1,2 km/h (1 Bft)
23.10.2016 00:00 -0,7 C 95 % 1014,8 hPa 0,0 l/m 0,0 km/h (0 Bft) O-NO -1,3 C -0,7 C 0,0 km/h (0 Bft)
23.10.2016 01:00 -1,5 C 95 % 1014,6 hPa 0,0 l/m 0,0 km/h (0 Bft) O-NO -2,2 C -1,5 C 0,1 km/h (0 Bft)
23.10.2016 02:00 -1,9 C 96 % 1014,4 hPa 0,0 l/m 0,0 km/h (0 Bft) O-NO -2,5 C -1,9 C 0,3 km/h (0 Bft)
23.10.2016 03:00 -1,8 C 96 % 1014,0 hPa 0,0 l/m 0,0 km/h (0 Bft) O-NO -2,4 C -1,8 C 0,9 km/h (0 Bft)
23.10.2016 04:00 -1,9 C 97 % 1013,4 hPa 0,0 l/m 0,1 km/h (0 Bft) O-NO -2,4 C -1,9 C 1,1 km/h (0 Bft)
23.10.2016 05:00 -2,0 C 97 % 1013,1 hPa 0,0 l/m 0,0 km/h (0 Bft) O-NO -2,4 C -2,0 C 0,2 km/h (0 Bft)
23.10.2016 06:00 -1,8 C 97 % 1013,0 hPa 0,0 l/m 0,1 km/h (0 Bft) O-NO -2,2 C -1,8 C 0,6 km/h (0 Bft)
23.10.2016 07:00 -1,0 C 97 % 1012,9 hPa 0,0 l/m 0,4 km/h (0 Bft) O-NO -1,4 C -1,0 C 2,3 km/h (1 Bft)
23.10.2016 08:00 -0,3 C 97 % 1013,0 hPa 0,0 l/m 0,5 km/h (0 Bft) O-NO -0,7 C -0,3 C 2,3 km/h (1 Bft)
23.10.2016 09:00 0,7 C 97 % 1013,0 hPa 0,0 l/m 0,2 km/h (0 Bft) O-NO 0,3 C 0,7 C 1,7 km/h (1 Bft)
23.10.2016 10:00 2,4 C 97 % 1012,8 hPa 0,0 l/m 0,3 km/h (0 Bft) O-NO 2,0 C 2,4 C 1,5 km/h (1 Bft)
23.10.2016 11:00 5,9 C 91 % 1012,4 hPa 0,0 l/m 1,1 km/h (0 Bft) S 4,5 C 5,9 C 3,0 km/h (1 Bft)
23.10.2016 12:00 7,4 C 85 % 1012,3 hPa 0,0 l/m 0,7 km/h (0 Bft) S-SW 5,1 C 7,4 C 2,0 km/h (1 Bft)
23.10.2016 13:00 8,0 C 85 % 1012,2 hPa 0,0 l/m 1,2 km/h (1 Bft) S-SW 5,6 C 8,0 C 3,4 km/h (1 Bft)
23.10.2016 14:00 8,5 C 87 % 1012,2 hPa 0,0 l/m 1,4 km/h (1 Bft) O-NO 6,4 C 8,5 C 4,0 km/h (1 Bft)
23.10.2016 15:00 8,7 C 85 % 1011,7 hPa 0,0 l/m 1,7 km/h (1 Bft) O-NO 6,3 C 8,7 C 5,2 km/h (1 Bft)
23.10.2016 16:00 8,8 C 84 % 1011,7 hPa 0,0 l/m 1,6 km/h (1 Bft) O-NO 6,3 C 8,8 C 4,8 km/h (1 Bft)
23.10.2016 17:00 7,8 C 92 % 1012,0 hPa 0,5 l/m 0,4 km/h (0 Bft) O-NO 6,6 C 7,8 C 1,8 km/h (1 Bft)
23.10.2016 18:00 7,7 C 93 % 1012,2 hPa 0,0 l/m 1,0 km/h (0 Bft) S-SO 6,7 C 7,7 C 3,4 km/h (1 Bft)
23.10.2016 19:00 7,9 C 95 % 1012,5 hPa 1,8 l/m 2,6 km/h (1 Bft) O-NO 7,1 C 7,9 C 6,8 km/h (2 Bft)
23.10.2016 20:00 8,0 C 95 % 1012,5 hPa 1,3 l/m 1,6 km/h (1 Bft) O 7,2 C 8,0 C 4,7 km/h (1 Bft)
23.10.2016 21:00 8,2 C 95 % 1012,5 hPa 0,5 l/m 2,0 km/h (1 Bft) O-NO 7,4 C 8,2 C 5,3 km/h (1 Bft)
23.10.2016 22:00 8,4 C 95 % 1012,6 hPa 0,3 l/m 1,0 km/h (0 Bft) O-NO 7,7 C 8,4 C 3,5 km/h (1 Bft)
23.10.2016 23:00 8,8 C 95 % 1012,5 hPa 0,0 l/m 1,9 km/h (1 Bft) O-NO 8,0 C 8,8 C 5,6 km/h (2 Bft)
Min-Datum _ 23.10.16 22.10.16 23.10.16 - 23.10.16 - 23.10.16 23.10.16 23.10.16
_ Min-Zeit 05:00 16:43 16:25 - 18:00 - 05:00 05:00 18:10
Minimum _ -2,1 C 56 % 1011,5 hPa - 0,0 km/h (0 Bft) - -2,6 C -2,1 C 0,0 km/h (0 Bft)
Max-Datum _ 17.10.16 23.10.16 17.10.16 19.10.16 20.10.16 - 17.10.16 17.10.16 19.10.16
_ Max-Zeit 13:50 10:05 20:00 05:35 12:02 - 15:35 13:50 14:40
Maximum _ 16,6 C 98 % 1023,6 hPa 4,8 l/m 11,3 km/h
O-NO (2 Bft)
- 12,4 C 16,6 C 24,1 km/h
O (4 Bft)
Durchschnitt _ 6,7 C 92 % 1017,2 hPa #45,5 l/m 1,9 km/h (1 Bft) O-NO 5,4 C 6,7 C 4,8 km/h (1 Bft)